sensor_id;sensor_type;location;lat;lon;timestamp;pressure;altitude;pressure_sealevel;temperature;humidity
21956;BME280;11142;49.930;8.606;2022-11-15T00:01:23;99751.47;;;12.31;100.00
21956;BME280;11142;49.930;8.606;2022-11-15T00:04:10;99748.50;;;12.24;100.00
21956;BME280;11142;49.930;8.606;2022-11-15T00:06:56;99743.88;;;12.16;100.00
21956;BME280;11142;49.930;8.606;2022-11-15T00:09:44;99740.59;;;12.25;100.00
21956;BME280;11142;49.930;8.606;2022-11-15T00:12:30;99742.84;;;12.41;100.00
21956;BME280;11142;49.930;8.606;2022-11-15T00:15:17;99743.56;;;12.54;100.00
21956;BME280;11142;49.930;8.606;2022-11-15T00:18:04;99739.31;;;12.64;100.00
21956;BME280;11142;49.930;8.606;2022-11-15T00:20:51;99750.19;;;12.81;100.00
21956;BME280;11142;49.930;8.606;2022-11-15T00:23:37;99748.41;;;12.92;100.00
21956;BME280;11142;49.930;8.606;2022-11-15T00:26:25;99746.00;;;13.00;100.00
21956;BME280;11142;49.930;8.606;2022-11-15T00:29:12;99747.81;;;13.11;100.00
21956;BME280;11142;49.930;8.606;2022-11-15T00:31:58;99753.25;;;13.19;100.00
21956;BME280;11142;49.930;8.606;2022-11-15T00:34:45;99755.81;;;13.30;99.71
21956;BME280;11142;49.930;8.606;2022-11-15T00:37:32;99753.91;;;13.43;98.79
21956;BME280;11142;49.930;8.606;2022-11-15T00:40:19;99744.31;;;13.32;98.18
21956;BME280;11142;49.930;8.606;2022-11-15T00:43:07;99751.88;;;13.47;98.32
21956;BME280;11142;49.930;8.606;2022-11-15T00:45:54;99740.34;;;13.60;97.67
21956;BME280;11142;49.930;8.606;2022-11-15T00:48:41;99748.00;;;13.73;96.57
21956;BME280;11142;49.930;8.606;2022-11-15T00:51:27;99745.25;;;13.74;95.86
21956;BME280;11142;49.930;8.606;2022-11-15T00:54:14;99741.22;;;13.70;95.77
21956;BME280;11142;49.930;8.606;2022-11-15T00:57:00;99729.56;;;13.54;96.45
21956;BME280;11142;49.930;8.606;2022-11-15T00:59:48;99724.63;;;13.51;96.95
21956;BME280;11142;49.930;8.606;2022-11-15T01:02:35;99723.56;;;13.42;97.19
21956;BME280;11142;49.930;8.606;2022-11-15T01:05:21;99720.50;;;13.37;97.84
21956;BME280;11142;49.930;8.606;2022-11-15T01:08:11;99724.88;;;13.37;98.02
21956;BME280;11142;49.930;8.606;2022-11-15T01:11:00;99713.03;;;13.44;97.74
21956;BME280;11142;49.930;8.606;2022-11-15T01:13:46;99718.50;;;13.61;96.68
21956;BME280;11142;49.930;8.606;2022-11-15T01:16:35;99716.44;;;13.76;95.54
21956;BME280;11142;49.930;8.606;2022-11-15T01:19:21;99719.47;;;13.81;94.61
21956;BME280;11142;49.930;8.606;2022-11-15T01:22:08;99714.38;;;13.79;94.18
21956;BME280;11142;49.930;8.606;2022-11-15T01:24:55;99713.09;;;13.74;94.54
21956;BME280;11142;49.930;8.606;2022-11-15T01:27:42;99711.09;;;13.77;93.98
21956;BME280;11142;49.930;8.606;2022-11-15T01:30:28;99708.16;;;13.92;93.27
21956;BME280;11142;49.930;8.606;2022-11-15T01:33:15;99709.81;;;13.93;93.01
21956;BME280;11142;49.930;8.606;2022-11-15T01:36:03;99695.75;;;14.05;92.67
21956;BME280;11142;49.930;8.606;2022-11-15T01:38:52;99709.56;;;14.16;91.55
21956;BME280;11142;49.930;8.606;2022-11-15T01:41:38;99704.44;;;14.15;90.93
21956;BME280;11142;49.930;8.606;2022-11-15T01:47:36;99704.06;;;13.99;92.84
21956;BME280;11142;49.930;8.606;2022-11-15T01:50:26;99702.28;;;14.20;91.85
21956;BME280;11142;49.930;8.606;2022-11-15T01:53:13;99704.31;;;14.37;90.86
21956;BME280;11142;49.930;8.606;2022-11-15T01:56:01;99704.25;;;14.48;89.76
21956;BME280;11142;49.930;8.606;2022-11-15T01:58:48;99704.50;;;14.45;89.68
21956;BME280;11142;49.930;8.606;2022-11-15T02:01:36;99700.50;;;14.41;89.96
21956;BME280;11142;49.930;8.606;2022-11-15T02:04:23;99696.94;;;14.42;89.99
21956;BME280;11142;49.930;8.606;2022-11-15T02:07:13;99684.66;;;14.33;90.37
21956;BME280;11142;49.930;8.606;2022-11-15T02:10:06;99686.22;;;14.45;90.35
21956;BME280;11142;49.930;8.606;2022-11-15T02:12:52;99682.28;;;14.60;89.28
21956;BME280;11142;49.930;8.606;2022-11-15T02:15:44;99684.41;;;14.36;89.06
21956;BME280;11142;49.930;8.606;2022-11-15T02:18:37;99667.34;;;14.11;90.99
21956;BME280;11142;49.930;8.606;2022-11-15T02:21:27;99660.50;;;14.10;91.97
21956;BME280;11142;49.930;8.606;2022-11-15T02:24:30;99659.41;;;14.13;91.48
21956;BME280;11142;49.930;8.606;2022-11-15T02:27:33;99650.91;;;13.90;92.29
21956;BME280;11142;49.930;8.606;2022-11-15T02:30:25;99644.50;;;13.53;94.64
21956;BME280;11142;49.930;8.606;2022-11-15T02:33:20;99652.38;;;13.10;97.34
21956;BME280;11142;49.930;8.606;2022-11-15T02:36:17;99652.53;;;12.75;100.00
21956;BME280;11142;49.930;8.606;2022-11-15T02:39:10;99649.63;;;12.46;100.00
21956;BME280;11142;49.930;8.606;2022-11-15T02:42:02;99649.63;;;12.24;100.00
21956;BME280;11142;49.930;8.606;2022-11-15T02:44:49;99646.72;;;12.17;100.00
21956;BME280;11142;49.930;8.606;2022-11-15T02:47:37;99646.34;;;12.11;100.00
21956;BME280;11142;49.930;8.606;2022-11-15T02:50:28;99642.44;;;12.05;100.00
21956;BME280;11142;49.930;8.606;2022-11-15T02:53:15;99638.78;;;12.19;100.00
21956;BME280;11142;49.930;8.606;2022-11-15T02:56:02;99630.03;;;12.20;100.00
21956;BME280;11142;49.930;8.606;2022-11-15T02:58:56;99635.22;;;12.31;100.00
21956;BME280;11142;49.930;8.606;2022-11-15T03:01:47;99641.50;;;12.29;100.00
21956;BME280;11142;49.930;8.606;2022-11-15T03:04:41;99633.59;;;12.08;100.00
21956;BME280;11142;49.930;8.606;2022-11-15T03:07:31;99635.91;;;11.78;100.00
21956;BME280;11142;49.930;8.606;2022-11-15T03:10:23;99641.22;;;11.41;100.00
21956;BME280;11142;49.930;8.606;2022-11-15T03:13:13;99626.59;;;11.51;100.00
21956;BME280;11142;49.930;8.606;2022-11-15T03:16:03;99622.72;;;11.57;100.00
21956;BME280;11142;49.930;8.606;2022-11-15T03:18:52;99624.88;;;11.63;100.00
21956;BME280;11142;49.930;8.606;2022-11-15T03:21:42;99624.31;;;11.70;100.00
21956;BME280;11142;49.930;8.606;2022-11-15T03:24:28;99627.53;;;11.85;100.00
21956;BME280;11142;49.930;8.606;2022-11-15T03:27:17;99628.38;;;11.97;100.00
21956;BME280;11142;49.930;8.606;2022-11-15T03:30:07;99634.97;;;12.12;100.00
21956;BME280;11142;49.930;8.606;2022-11-15T03:32:56;99634.38;;;12.31;100.00
21956;BME280;11142;49.930;8.606;2022-11-15T03:35:43;99627.03;;;12.47;100.00
21956;BME280;11142;49.930;8.606;2022-11-15T03:38:32;99625.25;;;12.58;100.00
21956;BME280;11142;49.930;8.606;2022-11-15T03:41:22;99624.03;;;12.73;100.00
21956;BME280;11142;49.930;8.606;2022-11-15T03:44:11;99624.25;;;12.82;100.00
21956;BME280;11142;49.930;8.606;2022-11-15T03:47:01;99617.50;;;12.79;100.00
21956;BME280;11142;49.930;8.606;2022-11-15T03:49:50;99616.06;;;12.86;100.00
21956;BME280;11142;49.930;8.606;2022-11-15T03:52:39;99622.63;;;12.69;100.00
21956;BME280;11142;49.930;8.606;2022-11-15T03:55:28;99629.47;;;11.25;100.00
21956;BME280;11142;49.930;8.606;2022-11-15T03:58:14;99629.59;;;10.76;100.00
21956;BME280;11142;49.930;8.606;2022-11-15T04:01:01;99629.59;;;10.99;100.00
21956;BME280;11142;49.930;8.606;2022-11-15T04:03:47;99632.44;;;11.31;100.00
21956;BME280;11142;49.930;8.606;2022-11-15T04:06:34;99632.88;;;11.95;100.00
21956;BME280;11142;49.930;8.606;2022-11-15T04:09:20;99638.03;;;12.50;100.00
21956;BME280;11142;49.930;8.606;2022-11-15T04:12:08;99634.81;;;12.69;100.00
21956;BME280;11142;49.930;8.606;2022-11-15T04:14:55;99644.44;;;12.13;100.00
21956;BME280;11142;49.930;8.606;2022-11-15T04:17:53;99638.81;;;11.27;100.00
21956;BME280;11142;49.930;8.606;2022-11-15T04:20:40;99630.69;;;11.32;100.00
21956;BME280;11142;49.930;8.606;2022-11-15T04:23:43;99630.81;;;11.06;100.00
21956;BME280;11142;49.930;8.606;2022-11-15T04:26:46;99638.16;;;11.12;100.00
21956;BME280;11142;49.930;8.606;2022-11-15T04:29:35;99629.78;;;11.09;100.00
21956;BME280;11142;49.930;8.606;2022-11-15T04:32:21;99629.47;;;11.59;100.00
21956;BME280;11142;49.930;8.606;2022-11-15T04:35:08;99628.13;;;12.00;100.00
21956;BME280;11142;49.930;8.606;2022-11-15T04:37:54;99615.72;;;12.37;100.00
21956;BME280;11142;49.930;8.606;2022-11-15T04:40:42;99628.56;;;12.71;100.00
21956;BME280;11142;49.930;8.606;2022-11-15T04:43:29;99626.59;;;12.85;100.00
21956;BME280;11142;49.930;8.606;2022-11-15T04:46:18;99614.72;;;13.03;100.00
21956;BME280;11142;49.930;8.606;2022-11-15T04:49:04;99613.91;;;13.02;100.00
21956;BME280;11142;49.930;8.606;2022-11-15T04:51:51;99608.78;;;13.01;100.00
21956;BME280;11142;49.930;8.606;2022-11-15T04:54:38;99612.22;;;13.01;100.00
21956;BME280;11142;49.930;8.606;2022-11-15T04:57:24;99617.31;;;13.14;100.00
21956;BME280;11142;49.930;8.606;2022-11-15T05:00:11;99618.28;;;13.34;100.00
21956;BME280;11142;49.930;8.606;2022-11-15T05:03:00;99620.28;;;13.41;100.00
21956;BME280;11142;49.930;8.606;2022-11-15T05:06:04;99613.03;;;13.13;100.00
21956;BME280;11142;49.930;8.606;2022-11-15T05:08:51;99605.28;;;12.91;100.00
21956;BME280;11142;49.930;8.606;2022-11-15T05:11:37;99605.28;;;12.59;100.00
21956;BME280;11142;49.930;8.606;2022-11-15T05:14:23;99598.56;;;12.23;100.00
21956;BME280;11142;49.930;8.606;2022-11-15T05:17:10;99595.00;;;12.24;100.00
21956;BME280;11142;49.930;8.606;2022-11-15T05:19:58;99603.28;;;12.29;100.00
21956;BME280;11142;49.930;8.606;2022-11-15T05:22:44;99602.00;;;12.23;100.00
21956;BME280;11142;49.930;8.606;2022-11-15T05:25:30;99602.25;;;12.09;100.00
21956;BME280;11142;49.930;8.606;2022-11-15T05:28:17;99600.22;;;12.02;100.00
21956;BME280;11142;49.930;8.606;2022-11-15T05:31:04;99606.25;;;12.13;100.00
21956;BME280;11142;49.930;8.606;2022-11-15T05:33:51;99601.28;;;12.21;100.00
21956;BME280;11142;49.930;8.606;2022-11-15T05:36:41;99599.88;;;11.84;100.00
21956;BME280;11142;49.930;8.606;2022-11-15T05:39:28;99587.19;;;11.68;100.00
21956;BME280;11142;49.930;8.606;2022-11-15T05:42:15;99581.34;;;11.43;100.00
21956;BME280;11142;49.930;8.606;2022-11-15T05:45:03;99589.72;;;11.35;100.00
21956;BME280;11142;49.930;8.606;2022-11-15T05:47:50;99579.84;;;11.62;100.00
21956;BME280;11142;49.930;8.606;2022-11-15T05:50:38;99584.50;;;11.81;100.00
21956;BME280;11142;49.930;8.606;2022-11-15T05:53:29;99580.13;;;11.93;100.00
21956;BME280;11142;49.930;8.606;2022-11-15T05:56:16;99576.59;;;12.16;100.00
21956;BME280;11142;49.930;8.606;2022-11-15T05:59:03;99569.38;;;12.19;100.00
21956;BME280;11142;49.930;8.606;2022-11-15T06:01:50;99566.63;;;12.32;100.00
21956;BME280;11142;49.930;8.606;2022-11-15T06:04:36;99566.16;;;12.38;100.00
21956;BME280;11142;49.930;8.606;2022-11-15T06:07:24;99563.53;;;12.38;100.00
21956;BME280;11142;49.930;8.606;2022-11-15T06:10:13;99570.38;;;12.50;100.00
21956;BME280;11142;49.930;8.606;2022-11-15T06:13:00;99574.84;;;12.59;100.00
21956;BME280;11142;49.930;8.606;2022-11-15T06:15:46;99575.75;;;12.69;100.00
21956;BME280;11142;49.930;8.606;2022-11-15T06:18:33;99575.03;;;12.78;100.00
21956;BME280;11142;49.930;8.606;2022-11-15T06:21:20;99575.09;;;12.56;100.00
21956;BME280;11142;49.930;8.606;2022-11-15T06:24:07;99583.81;;;12.66;100.00
21956;BME280;11142;49.930;8.606;2022-11-15T06:26:54;99583.13;;;12.64;100.00
21956;BME280;11142;49.930;8.606;2022-11-15T06:29:42;99580.81;;;12.82;100.00
21956;BME280;11142;49.930;8.606;2022-11-15T06:32:28;99581.22;;;12.98;100.00
21956;BME280;11142;49.930;8.606;2022-11-15T06:35:16;99585.03;;;13.26;100.00
21956;BME280;11142;49.930;8.606;2022-11-15T06:38:03;99587.25;;;13.51;100.00
21956;BME280;11142;49.930;8.606;2022-11-15T06:40:49;99580.63;;;13.68;100.00
21956;BME280;11142;49.930;8.606;2022-11-15T06:43:37;99589.03;;;13.71;100.00
21956;BME280;11142;49.930;8.606;2022-11-15T06:46:24;99586.38;;;13.41;100.00
21956;BME280;11142;49.930;8.606;2022-11-15T06:49:10;99588.66;;;13.14;100.00
21956;BME280;11142;49.930;8.606;2022-11-15T06:51:57;99584.38;;;12.81;100.00
21956;BME280;11142;49.930;8.606;2022-11-15T06:54:43;99585.72;;;12.64;100.00
21956;BME280;11142;49.930;8.606;2022-11-15T06:57:30;99589.31;;;12.52;100.00
21956;BME280;11142;49.930;8.606;2022-11-15T07:00:28;99588.03;;;12.36;100.00
21956;BME280;11142;49.930;8.606;2022-11-15T07:03:15;99590.53;;;12.26;100.00
21956;BME280;11142;49.930;8.606;2022-11-15T07:06:02;99588.00;;;12.47;100.00
21956;BME280;11142;49.930;8.606;2022-11-15T07:08:51;99584.66;;;12.56;100.00
21956;BME280;11142;49.930;8.606;2022-11-15T07:11:37;99587.25;;;12.67;100.00
21956;BME280;11142;49.930;8.606;2022-11-15T07:14:26;99580.91;;;12.92;100.00
21956;BME280;11142;49.930;8.606;2022-11-15T07:17:16;99588.84;;;13.22;100.00
21956;BME280;11142;49.930;8.606;2022-11-15T07:20:03;99589.28;;;13.68;100.00
21956;BME280;11142;49.930;8.606;2022-11-15T07:22:49;99593.44;;;14.01;100.00
21956;BME280;11142;49.930;8.606;2022-11-15T07:25:36;99584.88;;;14.29;100.00
21956;BME280;11142;49.930;8.606;2022-11-15T07:28:23;99582.72;;;14.34;100.00
21956;BME280;11142;49.930;8.606;2022-11-15T07:31:09;99586.84;;;14.37;100.00
21956;BME280;11142;49.930;8.606;2022-11-15T07:33:57;99579.09;;;14.26;100.00
21956;BME280;11142;49.930;8.606;2022-11-15T07:36:43;99575.91;;;14.13;100.00
21956;BME280;11142;49.930;8.606;2022-11-15T07:39:30;99577.56;;;14.14;100.00
21956;BME280;11142;49.930;8.606;2022-11-15T07:42:16;99574.84;;;14.25;100.00
21956;BME280;11142;49.930;8.606;2022-11-15T07:45:21;99573.66;;;14.08;100.00
21956;BME280;11142;49.930;8.606;2022-11-15T07:48:08;99568.47;;;14.18;100.00
21956;BME280;11142;49.930;8.606;2022-11-15T07:50:57;99575.97;;;14.02;100.00
21956;BME280;11142;49.930;8.606;2022-11-15T07:53:43;99572.66;;;14.30;100.00
21956;BME280;11142;49.930;8.606;2022-11-15T07:56:30;99578.34;;;14.35;98.52
21956;BME280;11142;49.930;8.606;2022-11-15T07:59:16;99584.44;;;14.55;96.66
21956;BME280;11142;49.930;8.606;2022-11-15T08:02:04;99582.94;;;14.62;95.83
21956;BME280;11142;49.930;8.606;2022-11-15T08:04:50;99586.53;;;14.89;95.02
21956;BME280;11142;49.930;8.606;2022-11-15T08:07:38;99590.09;;;15.17;91.73
21956;BME280;11142;49.930;8.606;2022-11-15T08:10:26;99586.78;;;15.44;90.30
21956;BME280;11142;49.930;8.606;2022-11-15T08:13:13;99589.78;;;15.68;87.55
21956;BME280;11142;49.930;8.606;2022-11-15T08:16:02;99591.72;;;16.03;85.74
21956;BME280;11142;49.930;8.606;2022-11-15T08:18:50;99600.16;;;15.97;85.68
21956;BME280;11142;49.930;8.606;2022-11-15T08:21:37;99593.09;;;15.41;86.71
21956;BME280;11142;49.930;8.606;2022-11-15T08:24:25;99598.47;;;14.73;92.73
21956;BME280;11142;49.930;8.606;2022-11-15T08:27:12;99592.41;;;13.62;100.00
21956;BME280;11142;49.930;8.606;2022-11-15T08:30:02;99587.44;;;13.39;100.00
21956;BME280;11142;49.930;8.606;2022-11-15T08:32:49;99594.91;;;13.43;100.00
21956;BME280;11142;49.930;8.606;2022-11-15T08:35:36;99600.03;;;14.05;100.00
21956;BME280;11142;49.930;8.606;2022-11-15T08:38:23;99597.72;;;14.42;100.00
21956;BME280;11142;49.930;8.606;2022-11-15T08:41:12;99587.72;;;14.17;100.00
21956;BME280;11142;49.930;8.606;2022-11-15T08:44:00;99580.75;;;14.76;100.00
21956;BME280;11142;49.930;8.606;2022-11-15T08:46:47;99582.09;;;15.38;96.80
21956;BME280;11142;49.930;8.606;2022-11-15T08:49:33;99582.69;;;15.88;92.47
21956;BME280;11142;49.930;8.606;2022-11-15T08:52:20;99581.75;;;16.43;89.83
21956;BME280;11142;49.930;8.606;2022-11-15T08:55:07;99585.34;;;16.70;85.20
21956;BME280;11142;49.930;8.606;2022-11-15T08:57:54;99584.00;;;17.01;82.95
21956;BME280;11142;49.930;8.606;2022-11-15T09:00:42;99584.88;;;17.10;78.63
21956;BME280;11142;49.930;8.606;2022-11-15T09:03:28;99585.88;;;17.52;78.92
21956;BME280;11142;49.930;8.606;2022-11-15T09:06:15;99596.09;;;17.81;76.77
21956;BME280;11142;49.930;8.606;2022-11-15T09:09:02;99596.25;;;17.79;74.92
21956;BME280;11142;49.930;8.606;2022-11-15T09:11:49;99587.16;;;17.66;74.99
21956;BME280;11142;49.930;8.606;2022-11-15T09:14:37;99583.19;;;17.87;75.26
21956;BME280;11142;49.930;8.606;2022-11-15T09:17:24;99583.03;;;17.63;74.25
21956;BME280;11142;49.930;8.606;2022-11-15T09:20:12;99582.38;;;17.43;75.10
21956;BME280;11142;49.930;8.606;2022-11-15T09:22:59;99584.16;;;17.61;76.59
21956;BME280;11142;49.930;8.606;2022-11-15T09:25:47;99584.31;;;17.41;78.46
21956;BME280;11142;49.930;8.606;2022-11-15T09:28:34;99576.22;;;16.91;82.75
21956;BME280;11142;49.930;8.606;2022-11-15T09:31:21;99576.19;;;16.56;87.32
21956;BME280;11142;49.930;8.606;2022-11-15T09:34:08;99573.09;;;16.33;89.93
21956;BME280;11142;49.930;8.606;2022-11-15T09:36:54;99576.06;;;16.21;91.19
21956;BME280;11142;49.930;8.606;2022-11-15T09:39:41;99586.13;;;15.98;95.32
21956;BME280;11142;49.930;8.606;2022-11-15T09:45:37;99579.94;;;16.44;94.20
21956;BME280;11142;49.930;8.606;2022-11-15T09:48:46;99573.44;;;16.58;92.11
21956;BME280;11142;49.930;8.606;2022-11-15T09:51:41;99564.44;;;16.78;87.92
21956;BME280;11142;49.930;8.606;2022-11-15T09:54:18;99567.66;;;17.25;86.26
21956;BME280;11142;49.930;8.606;2022-11-15T09:57:09;99563.53;;;17.99;81.16
21956;BME280;11142;49.930;8.606;2022-11-15T09:59:47;99561.91;;;18.40;79.04
21956;BME280;11142;49.930;8.606;2022-11-15T10:02:20;99556.91;;;18.55;76.47
21956;BME280;11142;49.930;8.606;2022-11-15T10:04:52;99555.72;;;18.49;77.86
21956;BME280;11142;49.930;8.606;2022-11-15T10:07:25;99564.69;;;18.39;77.42
21956;BME280;11142;49.930;8.606;2022-11-15T10:09:55;99558.94;;;18.43;77.13
21956;BME280;11142;49.930;8.606;2022-11-15T10:12:24;99552.03;;;18.34;77.75
21956;BME280;11142;49.930;8.606;2022-11-15T10:14:55;99558.38;;;18.24;79.10
21956;BME280;11142;49.930;8.606;2022-11-15T10:17:33;99540.97;;;17.81;81.77
21956;BME280;11142;49.930;8.606;2022-11-15T10:20:12;99544.00;;;17.42;84.01
21956;BME280;11142;49.930;8.606;2022-11-15T10:22:45;99544.13;;;17.84;85.46
21956;BME280;11142;49.930;8.606;2022-11-15T10:25:19;99524.69;;;18.03;82.23
21956;BME280;11142;49.930;8.606;2022-11-15T10:27:51;99526.91;;;17.90;80.34
21956;BME280;11142;49.930;8.606;2022-11-15T10:30:20;99533.16;;;17.63;81.57
21956;BME280;11142;49.930;8.606;2022-11-15T10:32:48;99537.84;;;17.08;84.38
21956;BME280;11142;49.930;8.606;2022-11-15T10:35:22;99531.91;;;17.06;87.67
21956;BME280;11142;49.930;8.606;2022-11-15T10:37:50;99524.59;;;17.35;83.44
21956;BME280;11142;49.930;8.606;2022-11-15T10:40:19;99526.16;;;18.05;80.87
21956;BME280;11142;49.930;8.606;2022-11-15T10:42:48;99522.81;;;17.87;81.57
21956;BME280;11142;49.930;8.606;2022-11-15T10:45:23;99517.31;;;17.73;81.82
21956;BME280;11142;49.930;8.606;2022-11-15T10:47:51;99517.16;;;17.74;82.97
21956;BME280;11142;49.930;8.606;2022-11-15T10:50:27;99507.81;;;17.28;81.95
21956;BME280;11142;49.930;8.606;2022-11-15T10:52:55;99500.56;;;16.96;85.03
21956;BME280;11142;49.930;8.606;2022-11-15T10:55:24;99489.06;;;16.89;86.64
21956;BME280;11142;49.930;8.606;2022-11-15T10:57:53;99490.38;;;16.93;86.01
21956;BME280;11142;49.930;8.606;2022-11-15T11:00:32;99486.50;;;16.80;85.99
21956;BME280;11142;49.930;8.606;2022-11-15T11:03:23;99481.00;;;17.09;87.04
21956;BME280;11142;49.930;8.606;2022-11-15T11:06:07;99479.88;;;17.37;82.92
21956;BME280;11142;49.930;8.606;2022-11-15T11:08:35;99476.00;;;17.75;81.91
21956;BME280;11142;49.930;8.606;2022-11-15T11:11:04;99477.22;;;17.88;80.66
21956;BME280;11142;49.930;8.606;2022-11-15T11:13:34;99472.34;;;18.10;80.16
21956;BME280;11142;49.930;8.606;2022-11-15T11:16:14;99470.47;;;18.52;76.82
21956;BME280;11142;49.930;8.606;2022-11-15T11:18:47;99475.97;;;18.17;76.80
21956;BME280;11142;49.930;8.606;2022-11-15T11:21:18;99464.97;;;18.21;77.26
21956;BME280;11142;49.930;8.606;2022-11-15T11:23:58;99462.69;;;19.86;71.03
21956;BME280;11142;49.930;8.606;2022-11-15T11:26:34;99459.88;;;20.72;66.02
21956;BME280;11142;49.930;8.606;2022-11-15T11:29:08;99453.56;;;20.58;65.10
21956;BME280;11142;49.930;8.606;2022-11-15T11:31:42;99445.69;;;19.97;66.71
21956;BME280;11142;49.930;8.606;2022-11-15T11:34:15;99438.72;;;19.81;67.76
21956;BME280;11142;49.930;8.606;2022-11-15T11:36:48;99434.63;;;19.79;66.81
21956;BME280;11142;49.930;8.606;2022-11-15T11:39:20;99430.56;;;19.60;68.13
21956;BME280;11142;49.930;8.606;2022-11-15T11:41:59;99438.41;;;19.13;70.13
21956;BME280;11142;49.930;8.606;2022-11-15T11:44:32;99433.00;;;18.98;70.70
21956;BME280;11142;49.930;8.606;2022-11-15T11:47:01;99419.53;;;19.01;71.73
21956;BME280;11142;49.930;8.606;2022-11-15T11:49:34;99421.31;;;19.01;71.68
21956;BME280;11142;49.930;8.606;2022-11-15T11:52:10;99418.38;;;18.88;71.45
21956;BME280;11142;49.930;8.606;2022-11-15T11:54:44;99411.22;;;19.29;70.38
21956;BME280;11142;49.930;8.606;2022-11-15T11:57:23;99407.75;;;19.44;69.72
21956;BME280;11142;49.930;8.606;2022-11-15T11:59:55;99410.78;;;19.95;68.04
21956;BME280;11142;49.930;8.606;2022-11-15T12:02:38;99398.88;;;19.45;67.89
21956;BME280;11142;49.930;8.606;2022-11-15T12:05:09;99404.25;;;18.89;70.41
21956;BME280;11142;49.930;8.606;2022-11-15T12:07:40;99391.94;;;18.49;72.73
21956;BME280;11142;49.930;8.606;2022-11-15T12:10:15;99389.28;;;18.49;73.58
21956;BME280;11142;49.930;8.606;2022-11-15T12:12:49;99393.13;;;18.71;72.96
21956;BME280;11142;49.930;8.606;2022-11-15T12:15:19;99387.13;;;19.01;71.73
21956;BME280;11142;49.930;8.606;2022-11-15T12:17:48;99372.47;;;19.15;70.66
21956;BME280;11142;49.930;8.606;2022-11-15T12:20:17;99366.25;;;19.54;68.94
21956;BME280;11142;49.930;8.606;2022-11-15T12:22:52;99372.34;;;19.86;67.43
21956;BME280;11142;49.930;8.606;2022-11-15T12:25:22;99365.63;;;19.52;67.46
21956;BME280;11142;49.930;8.606;2022-11-15T12:27:53;99358.72;;;19.51;68.51
21956;BME280;11142;49.930;8.606;2022-11-15T12:30:22;99352.66;;;19.35;68.63
21956;BME280;11142;49.930;8.606;2022-11-15T12:32:52;99349.94;;;19.20;69.60
21956;BME280;11142;49.930;8.606;2022-11-15T12:35:24;99338.56;;;19.28;69.80
21956;BME280;11142;49.930;8.606;2022-11-15T12:37:54;99346.53;;;19.12;68.98
21956;BME280;11142;49.930;8.606;2022-11-15T12:40:26;99338.72;;;18.71;70.61
21956;BME280;11142;49.930;8.606;2022-11-15T12:43:02;99342.84;;;18.25;72.69
21956;BME280;11142;49.930;8.606;2022-11-15T12:45:31;99344.66;;;18.25;73.31
21956;BME280;11142;49.930;8.606;2022-11-15T12:50:55;99343.09;;;17.24;84.82
21956;BME280;11142;49.930;8.606;2022-11-15T12:53:27;99341.31;;;16.47;91.96
21956;BME280;11142;49.930;8.606;2022-11-15T12:58:43;99324.03;;;15.75;95.92
21956;BME280;11142;49.930;8.606;2022-11-15T13:04:08;99321.50;;;16.27;95.22
21956;BME280;11142;49.930;8.606;2022-11-15T13:06:40;99321.84;;;16.67;92.01
21956;BME280;11142;49.930;8.606;2022-11-15T13:11:57;99319.19;;;16.24;98.67
21956;BME280;11142;49.930;8.606;2022-11-15T13:17:27;99313.00;;;15.89;100.00
21956;BME280;11142;49.930;8.606;2022-11-15T13:20:00;99316.31;;;15.91;100.00
21956;BME280;11142;49.930;8.606;2022-11-15T13:22:38;99309.56;;;15.89;100.00
21956;BME280;11142;49.930;8.606;2022-11-15T13:28:20;99296.72;;;15.60;100.00
21956;BME280;11142;49.930;8.606;2022-11-15T13:30:49;99287.22;;;15.59;100.00
21956;BME280;11142;49.930;8.606;2022-11-15T13:33:18;99289.72;;;15.78;100.00
21956;BME280;11142;49.930;8.606;2022-11-15T13:35:47;99284.00;;;16.01;97.06
21956;BME280;11142;49.930;8.606;2022-11-15T13:38:19;99281.66;;;16.15;94.35
21956;BME280;11142;49.930;8.606;2022-11-15T13:40:52;99281.59;;;16.51;92.20
21956;BME280;11142;49.930;8.606;2022-11-15T13:43:26;99280.44;;;16.53;90.24
21956;BME280;11142;49.930;8.606;2022-11-15T13:46:10;99271.53;;;16.64;89.78
21956;BME280;11142;49.930;8.606;2022-11-15T13:48:38;99269.94;;;16.71;88.58
21956;BME280;11142;49.930;8.606;2022-11-15T13:51:10;99266.22;;;16.81;87.86
21956;BME280;11142;49.930;8.606;2022-11-15T13:53:42;99261.34;;;16.86;86.14
21956;BME280;11142;49.930;8.606;2022-11-15T13:56:13;99261.59;;;16.75;85.49
21956;BME280;11142;49.930;8.606;2022-11-15T13:58:43;99259.31;;;16.72;85.69
21956;BME280;11142;49.930;8.606;2022-11-15T14:01:13;99253.09;;;16.73;84.30
21956;BME280;11142;49.930;8.606;2022-11-15T14:03:46;99250.53;;;16.56;85.45
21956;BME280;11142;49.930;8.606;2022-11-15T14:06:15;99242.09;;;16.70;84.63
21956;BME280;11142;49.930;8.606;2022-11-15T14:08:57;99240.88;;;16.90;83.73
21956;BME280;11142;49.930;8.606;2022-11-15T14:11:25;99238.28;;;16.98;83.08
21956;BME280;11142;49.930;8.606;2022-11-15T14:14:02;99241.84;;;16.89;83.15
21956;BME280;11142;49.930;8.606;2022-11-15T14:16:33;99227.94;;;16.96;82.24
21956;BME280;11142;49.930;8.606;2022-11-15T14:19:02;99228.69;;;16.81;82.80
21956;BME280;11142;49.930;8.606;2022-11-15T14:21:32;99225.50;;;16.95;82.57
21956;BME280;11142;49.930;8.606;2022-11-15T14:24:15;99227.09;;;16.88;82.07
21956;BME280;11142;49.930;8.606;2022-11-15T14:26:44;99219.50;;;16.43;83.28
21956;BME280;11142;49.930;8.606;2022-11-15T14:29:23;99210.38;;;16.21;84.87
21956;BME280;11142;49.930;8.606;2022-11-15T14:31:52;99205.00;;;16.23;85.99
21956;BME280;11142;49.930;8.606;2022-11-15T14:34:20;99197.78;;;16.51;84.66
21956;BME280;11142;49.930;8.606;2022-11-15T14:36:49;99191.47;;;16.61;83.85
21956;BME280;11142;49.930;8.606;2022-11-15T14:39:17;99193.41;;;16.59;84.11
21956;BME280;11142;49.930;8.606;2022-11-15T14:41:46;99191.63;;;16.60;83.96